Time;durP1;ratioP1;P1;durP2;ratioP2;P2;SDS_P1;SDS_P2;PMS_P1;PMS_P2;Temp;Humidity;BMP_temperature;BMP_pressure;BME280_temperature;BME280_humidity;BME280_pressure;Samples;Min_cycle;Max_cycle;Signal;HPM_P1;HPM_P2
2023/10/07 00:01:22;;;;;;;14.90;8.03;;;24.30;61.70;;;;;;5038067;28;20530;-78
2023/10/07 00:03:51;;;;;;;16.20;7.63;;;24.30;61.70;;;;;;5029339;28;20462;-78
2023/10/07 00:06:22;;;;;;;11.80;7.10;;;24.30;61.60;;;;;;5032933;28;20429;-79
2023/10/07 00:08:51;;;;;;;14.57;7.30;;;24.30;61.70;;;;;;5039490;28;20485;-79
2023/10/07 00:11:19;;;;;;;12.33;6.87;;;24.30;61.70;;;;;;5034663;28;20460;-79
2023/10/07 00:13:54;;;;;;;12.37;7.00;;;24.30;61.80;;;;;;5020762;28;20461;-79
2023/10/07 00:16:24;;;;;;;10.67;6.73;;;24.30;61.80;;;;;;5039454;28;20458;-79
2023/10/07 00:18:54;;;;;;;12.50;6.77;;;24.30;61.90;;;;;;5037658;28;20506;-78
2023/10/07 00:21:26;;;;;;;13.03;6.93;;;24.30;61.80;;;;;;5040233;28;20443;-79
2023/10/07 00:23:57;;;;;;;12.03;6.40;;;24.30;61.80;;;;;;5039118;28;20440;-79
2023/10/07 00:26:27;;;;;;;12.27;6.77;;;24.30;61.80;;;;;;5046117;28;20448;-79
2023/10/07 00:29:00;;;;;;;9.87;6.27;;;24.30;62.50;;;;;;5032706;28;20451;-78
2023/10/07 00:31:33;;;;;;;15.90;7.47;;;24.30;61.90;;;;;;5034739;28;20417;-79
2023/10/07 00:34:11;;;;;;;12.80;6.80;;;24.30;61.80;;;;;;5038985;28;20469;-78
2023/10/07 00:36:42;;;;;;;13.00;7.37;;;24.30;61.90;;;;;;5039306;28;20489;-78
2023/10/07 00:39:19;;;;;;;12.53;7.03;;;24.30;61.90;;;;;;5039003;28;20459;-79
2023/10/07 00:41:50;;;;;;;13.63;8.33;;;24.30;61.90;;;;;;5038916;28;20505;-79
2023/10/07 00:44:21;;;;;;;12.50;6.90;;;24.20;61.90;;;;;;5033594;28;20510;-78
2023/10/07 00:47:07;;;;;;;13.00;7.70;;;24.30;62.00;;;;;;5027439;28;20967;-78
2023/10/07 00:49:40;;;;;;;11.23;7.00;;;24.20;61.90;;;;;;5037649;28;20447;-78
2023/10/07 00:52:13;;;;;;;13.77;7.17;;;24.20;61.80;;;;;;5037272;28;20528;-78
2023/10/07 00:54:50;;;;;;;15.03;7.97;;;24.30;62.00;;;;;;5028075;28;20472;-78
2023/10/07 00:57:29;;;;;;;15.40;7.43;;;24.30;62.00;;;;;;5034047;28;20431;-77
2023/10/07 00:59:58;;;;;;;15.90;7.87;;;24.20;62.00;;;;;;5034584;28;20441;-79
2023/10/07 01:02:30;;;;;;;12.23;7.33;;;24.20;62.00;;;;;;5034390;28;20518;-78
2023/10/07 01:05:06;;;;;;;21.93;7.70;;;24.20;61.90;;;;;;5034564;28;20463;-78
2023/10/07 01:07:35;;;;;;;11.23;7.03;;;24.20;61.90;;;;;;5035217;28;20471;-78
2023/10/07 01:10:13;;;;;;;12.90;7.10;;;24.20;62.00;;;;;;5034624;28;20513;-78
2023/10/07 01:12:42;;;;;;;11.63;6.73;;;24.20;62.00;;;;;;5035440;28;20483;-78
2023/10/07 01:15:22;;;;;;;11.87;7.13;;;24.20;62.00;;;;;;5034654;28;20456;-78
2023/10/07 01:18:03;;;;;;;12.00;6.40;;;24.30;61.90;;;;;;5035075;28;20476;-77
2023/10/07 01:20:35;;;;;;;10.40;6.40;;;24.20;62.10;;;;;;5035285;28;20461;-78
2023/10/07 01:23:07;;;;;;;14.53;8.17;;;24.20;62.10;;;;;;5035333;28;20505;-78
2023/10/07 01:25:36;;;;;;;11.83;6.77;;;24.20;62.10;;;;;;5037355;28;20507;-80
2023/10/07 01:28:08;;;;;;;15.57;7.87;;;24.20;62.10;;;;;;5045164;28;20448;-78
2023/10/07 01:30:36;;;;;;;9.77;7.10;;;24.20;62.10;;;;;;5043436;28;20472;-78
2023/10/07 01:33:09;;;;;;;11.07;7.33;;;24.10;62.10;;;;;;5038670;28;20441;-78
2023/10/07 01:35:39;;;;;;;11.40;7.47;;;24.20;62.20;;;;;;5029401;28;20473;-78
2023/10/07 01:38:18;;;;;;;10.90;7.27;;;24.10;62.10;;;;;;5034641;28;20530;-79
2023/10/07 01:41:04;;;;;;;13.60;7.90;;;24.10;62.10;;;;;;5052972;28;20477;-78
2023/10/07 01:43:39;;;;;;;11.37;7.43;;;24.10;62.20;;;;;;5022434;28;20501;-78
2023/10/07 01:46:11;;;;;;;11.93;7.23;;;24.10;62.30;;;;;;5036591;28;20461;-78
2023/10/07 01:48:55;;;;;;;10.90;6.67;;;24.10;62.30;;;;;;5033453;28;20456;-78
2023/10/07 01:51:26;;;;;;;11.27;6.90;;;24.10;62.40;;;;;;5037935;28;20451;-78
2023/10/07 01:54:02;;;;;;;13.23;7.80;;;24.10;62.40;;;;;;5036821;28;20546;-78
2023/10/07 01:56:38;;;;;;;10.83;6.40;;;24.10;62.40;;;;;;5035269;28;20413;-78
2023/10/07 01:59:17;;;;;;;8.83;5.80;;;24.10;62.60;;;;;;5035701;28;20475;-78
2023/10/07 02:01:57;;;;;;;11.20;6.33;;;24.10;62.60;;;;;;5033033;28;20554;-78
2023/10/07 02:04:27;;;;;;;10.70;6.43;;;24.00;62.60;;;;;;5034507;28;20475;-79
2023/10/07 02:06:56;;;;;;;10.60;6.20;;;24.00;62.60;;;;;;5038148;28;20494;-79
2023/10/07 02:09:27;;;;;;;13.43;6.60;;;24.00;62.60;;;;;;5037948;28;20422;-80
2023/10/07 02:11:56;;;;;;;10.00;7.00;;;24.00;62.80;;;;;;5037571;28;20444;-78
2023/10/07 02:14:25;;;;;;;10.97;6.43;;;24.00;62.80;;;;;;5034346;28;20479;-79
2023/10/07 02:16:54;;;;;;;10.87;6.27;;;24.00;62.80;;;;;;5036333;28;20451;-79
2023/10/07 02:19:29;;;;;;;10.63;6.90;;;24.00;62.70;;;;;;5037085;28;20438;-79
2023/10/07 02:21:59;;;;;;;9.47;6.63;;;24.00;62.80;;;;;;5037612;28;20477;-79
2023/10/07 02:24:31;;;;;;;9.93;6.07;;;24.00;62.80;;;;;;5036624;28;20481;-79
2023/10/07 02:27:00;;;;;;;13.23;6.57;;;23.90;62.80;;;;;;5037124;28;20421;-78
2023/10/07 02:29:29;;;;;;;9.73;6.40;;;23.90;62.70;;;;;;5024006;28;20418;-79
2023/10/07 02:32:07;;;;;;;9.30;5.93;;;24.00;62.90;;;;;;5034665;28;20438;-78
2023/10/07 02:34:35;;;;;;;9.97;6.20;;;23.90;62.60;;;;;;5029820;28;20459;-79
2023/10/07 02:37:13;;;;;;;8.33;5.80;;;23.90;62.80;;;;;;5034143;28;20563;-77
2023/10/07 02:39:50;;;;;;;9.47;6.23;;;23.90;62.90;;;;;;5033686;28;20914;-78
2023/10/07 02:42:23;;;;;;;8.40;6.17;;;23.90;62.90;;;;;;5013751;28;20424;-78
2023/10/07 02:45:00;;;;;;;12.60;6.90;;;23.90;62.90;;;;;;5030612;28;20459;-78
2023/10/07 02:47:32;;;;;;;9.43;5.83;;;23.90;62.90;;;;;;5027374;28;20475;-77
2023/10/07 02:50:02;;;;;;;8.93;5.20;;;23.90;63.10;;;;;;5033983;28;20444;-78
2023/10/07 02:52:36;;;;;;;13.63;7.43;;;23.90;63.10;;;;;;5033856;28;20426;-78
2023/10/07 02:55:28;;;;;;;12.70;6.20;;;23.90;63.10;;;;;;5031491;28;20441;-78
2023/10/07 02:57:56;;;;;;;13.50;5.73;;;23.90;63.00;;;;;;5033343;28;20439;-77
2023/10/07 03:00:35;;;;;;;10.57;5.40;;;23.90;63.10;;;;;;5033475;28;20483;-77
2023/10/07 03:03:33;;;;;;;10.60;5.63;;;23.80;63.10;;;;;;5033545;28;20526;-77
2023/10/07 03:06:06;;;;;;;9.27;5.80;;;23.80;63.20;;;;;;5033318;28;20442;-77
2023/10/07 03:08:47;;;;;;;10.00;5.60;;;23.80;63.30;;;;;;5026909;28;20428;-78
2023/10/07 03:11:22;;;;;;;9.77;6.00;;;23.80;63.30;;;;;;5034492;28;20415;-78
2023/10/07 03:13:50;;;;;;;6.97;5.23;;;23.80;63.30;;;;;;5033977;28;20526;-76
2023/10/07 03:16:28;;;;;;;8.73;5.73;;;23.80;63.30;;;;;;5034219;28;20469;-77
2023/10/07 03:19:06;;;;;;;8.23;5.40;;;23.80;63.20;;;;;;5034032;28;20582;-77
2023/10/07 03:24:32;;;;;;;10.97;5.83;;;23.80;63.20;;;;;;5033873;28;20474;-78
2023/10/07 03:27:05;;;;;;;9.07;5.50;;;23.80;63.40;;;;;;5034647;28;20414;-78
2023/10/07 03:29:37;;;;;;;10.33;5.17;;;23.80;63.50;;;;;;5041312;28;20431;-78
2023/10/07 03:32:12;;;;;;;10.87;5.37;;;23.80;63.40;;;;;;5036930;28;20406;-78
2023/10/07 03:34:45;;;;;;;7.17;5.27;;;23.80;63.40;;;;;;5023149;28;20964;-78
2023/10/07 03:37:18;;;;;;;10.20;5.47;;;23.80;63.40;;;;;;5018956;28;20429;-79
2023/10/07 03:39:57;;;;;;;7.60;4.83;;;23.80;63.40;;;;;;5035637;28;20458;-78
2023/10/07 03:42:26;;;;;;;7.63;5.30;;;23.80;63.40;;;;;;5027352;28;20542;-78
2023/10/07 03:44:54;;;;;;;7.50;5.10;;;23.80;63.30;;;;;;5034604;28;20490;-78
2023/10/07 03:47:22;;;;;;;7.77;5.37;;;23.80;63.40;;;;;;5034223;28;20482;-79
2023/10/07 03:49:53;;;;;;;11.90;4.90;;;23.80;63.50;;;;;;5033559;28;20451;-78
2023/10/07 03:52:27;;;;;;;8.20;5.70;;;23.80;63.50;;;;;;5034235;28;20435;-78
2023/10/07 03:54:59;;;;;;;6.00;4.90;;;23.80;63.40;;;;;;5037916;28;20466;-78
2023/10/07 03:57:29;;;;;;;8.53;5.00;;;23.80;63.50;;;;;;5029395;28;20925;-78
2023/10/07 03:59:58;;;;;;;9.27;4.90;;;23.80;63.40;;;;;;5037182;28;20471;-79
2023/10/07 04:02:36;;;;;;;6.60;4.80;;;23.80;63.50;;;;;;5018051;28;20475;-77
2023/10/07 04:05:12;;;;;;;7.63;5.00;;;23.80;63.40;;;;;;5034913;28;20463;-78
2023/10/07 04:07:43;;;;;;;6.03;4.90;;;23.80;63.50;;;;;;5037199;28;20417;-78
2023/10/07 04:10:21;;;;;;;7.50;4.87;;;23.80;63.40;;;;;;5020775;28;20425;-78
2023/10/07 04:12:56;;;;;;;6.07;4.30;;;23.80;63.50;;;;;;5023918;28;20444;-78
2023/10/07 04:15:29;;;;;;;5.70;5.07;;;23.80;63.50;;;;;;5028494;28;20443;-79
2023/10/07 04:17:59;;;;;;;7.40;4.90;;;23.80;63.60;;;;;;5020044;28;20471;-78
2023/10/07 04:20:50;;;;;;;6.90;4.70;;;23.80;63.60;;;;;;5029921;28;20479;-78
2023/10/07 04:23:21;;;;;;;7.03;4.37;;;23.80;64.20;;;;;;5040824;28;20454;-78
2023/10/07 04:25:49;;;;;;;10.67;5.50;;;23.80;63.80;;;;;;5053437;22;20525;-79
2023/10/07 04:28:22;;;;;;;7.63;4.43;;;23.80;63.70;;;;;;5060315;28;20470;-79
2023/10/07 04:30:53;;;;;;;7.63;4.60;;;23.80;63.60;;;;;;5063384;28;20462;-79
2023/10/07 04:33:32;;;;;;;6.47;4.70;;;23.80;63.70;;;;;;5061256;28;20470;-79
2023/10/07 04:36:04;;;;;;;5.33;4.30;;;23.80;63.60;;;;;;5045639;28;20466;-79
2023/10/07 04:38:52;;;;;;;6.00;4.03;;;23.80;63.60;;;;;;5060672;28;20458;-78
2023/10/07 04:41:36;;;;;;;7.37;4.63;;;23.80;63.50;;;;;;5061058;28;20567;-79
2023/10/07 04:45:15;;;;;;;7.03;4.67;;;23.80;63.60;;;;;;5043056;28;20459;-79
2023/10/07 04:47:29;;;;;;;11.73;4.90;;;23.80;63.70;;;;;;5050809;28;20466;-79
2023/10/07 04:50:05;;;;;;;7.20;4.57;;;23.80;63.80;;;;;;5063205;28;20504;-79
2023/10/07 04:52:33;;;;;;;11.73;4.80;;;23.80;63.70;;;;;;5062761;28;20441;-80
2023/10/07 04:55:02;;;;;;;7.13;4.57;;;23.80;63.70;;;;;;5064345;28;20474;-80
2023/10/07 04:57:43;;;;;;;6.10;4.40;;;23.80;63.60;;;;;;5062073;28;20504;-79
2023/10/07 05:00:27;;;;;;;7.90;4.10;;;23.80;63.70;;;;;;5062325;28;20479;-79
2023/10/07 05:02:57;;;;;;;5.57;3.63;;;23.80;63.80;;;;;;5063848;28;20425;-79
2023/10/07 05:05:29;;;;;;;6.50;4.70;;;23.80;63.70;;;;;;5062365;28;20474;-78
2023/10/07 05:07:58;;;;;;;7.20;4.60;;;23.80;63.60;;;;;;5063762;28;20468;-79
2023/10/07 05:10:29;;;;;;;8.53;4.67;;;23.80;63.70;;;;;;5059863;28;20453;-78
2023/10/07 05:13:01;;;;;;;6.67;4.07;;;23.80;63.70;;;;;;5039652;28;20421;-78
2023/10/07 05:15:31;;;;;;;6.47;4.50;;;23.80;63.60;;;;;;5036994;28;20441;-79
2023/10/07 05:18:01;;;;;;;6.37;4.13;;;23.80;63.70;;;;;;5052292;28;20525;-78
2023/10/07 05:20:31;;;;;;;6.23;4.50;;;23.90;63.80;;;;;;5056256;28;20474;-77
2023/10/07 05:23:02;;;;;;;5.20;4.27;;;23.80;63.80;;;;;;5056227;28;20491;-79
2023/10/07 05:25:35;;;;;;;6.83;4.13;;;23.80;64.50;;;;;;5055690;28;20529;-78
2023/10/07 05:28:10;;;;;;;6.60;4.60;;;23.80;63.70;;;;;;5057310;28;20459;-80
2023/10/07 05:30:43;;;;;;;5.70;4.50;;;23.80;63.70;;;;;;5056598;28;20442;-78
2023/10/07 05:33:11;;;;;;;7.30;4.20;;;23.80;63.60;;;;;;5055232;28;20482;-78
2023/10/07 05:35:39;;;;;;;6.00;4.60;;;23.90;63.80;;;;;;5039522;28;20453;-78
2023/10/07 05:38:09;;;;;;;9.00;4.73;;;23.90;63.80;;;;;;5055629;28;20478;-78
2023/10/07 05:40:38;;;;;;;5.13;4.17;;;23.90;63.60;;;;;;5055355;28;20512;-78
2023/10/07 05:43:08;;;;;;;4.30;3.90;;;23.80;63.80;;;;;;5055599;28;20446;-78
2023/10/07 05:45:38;;;;;;;4.77;3.97;;;23.80;63.70;;;;;;5035372;28;20428;-78
2023/10/07 05:48:10;;;;;;;5.40;4.20;;;23.80;63.70;;;;;;5035553;28;20432;-78
2023/10/07 05:50:39;;;;;;;7.07;4.40;;;23.80;63.70;;;;;;5048276;28;20426;-78
2023/10/07 05:53:08;;;;;;;5.57;4.20;;;23.80;63.80;;;;;;5055418;28;20508;-78
2023/10/07 05:55:36;;;;;;;6.03;3.80;;;23.90;63.90;;;;;;5055418;28;20454;-78
2023/10/07 05:58:04;;;;;;;7.40;4.30;;;23.90;63.80;;;;;;5054278;28;20435;-77
2023/10/07 06:00:32;;;;;;;7.63;4.33;;;23.90;63.80;;;;;;5041285;28;20513;-78
2023/10/07 06:03:05;;;;;;;7.73;4.13;;;23.90;63.80;;;;;;5055484;28;20460;-77
2023/10/07 06:05:37;;;;;;;5.47;4.03;;;23.90;63.80;;;;;;5056484;28;20450;-78
2023/10/07 06:08:07;;;;;;;6.13;4.23;;;23.90;63.90;;;;;;5048739;28;20446;-78
2023/10/07 06:10:37;;;;;;;8.43;4.50;;;23.90;63.80;;;;;;5041455;28;20443;-79
2023/10/07 06:13:09;;;;;;;4.70;3.83;;;23.90;63.80;;;;;;5054206;28;20434;-79
2023/10/07 06:15:38;;;;;;;7.23;3.70;;;23.80;63.70;;;;;;5054886;28;20509;-78
2023/10/07 06:18:07;;;;;;;6.17;4.00;;;23.80;63.90;;;;;;5057167;28;20424;-80
2023/10/07 06:20:38;;;;;;;6.47;3.87;;;23.80;63.90;;;;;;5057704;28;20482;-77
2023/10/07 06:23:14;;;;;;;7.80;3.80;;;23.80;63.90;;;;;;5058033;28;20434;-80
2023/10/07 06:25:48;;;;;;;4.80;3.90;;;23.90;64.00;;;;;;5045975;28;20522;-80
2023/10/07 06:28:29;;;;;;;4.50;3.70;;;23.80;63.90;;;;;;5038712;28;20474;-79
2023/10/07 06:31:03;;;;;;;6.73;3.93;;;23.90;64.10;;;;;;5038299;28;20412;-78
2023/10/07 06:33:31;;;;;;;5.90;4.20;;;23.90;64.00;;;;;;5038765;28;20455;-78
2023/10/07 06:36:02;;;;;;;6.73;4.10;;;23.90;63.90;;;;;;5043950;28;20466;-79
2023/10/07 06:38:33;;;;;;;6.33;4.10;;;23.90;63.80;;;;;;5043270;28;20443;-80
2023/10/07 06:41:11;;;;;;;5.33;3.77;;;23.90;63.70;;;;;;5058018;28;20470;-80
2023/10/07 06:43:39;;;;;;;5.70;3.70;;;23.90;63.80;;;;;;5047566;28;20451;-80
2023/10/07 06:46:10;;;;;;;5.37;3.57;;;23.90;63.90;;;;;;5046376;28;20467;-80
2023/10/07 06:48:39;;;;;;;6.20;3.83;;;23.90;64.50;;;;;;5041533;28;20446;-80
2023/10/07 06:51:11;;;;;;;6.13;3.77;;;23.90;63.80;;;;;;5057868;28;20438;-79
2023/10/07 06:53:42;;;;;;;6.37;3.90;;;23.90;63.90;;;;;;5052170;28;20490;-78
2023/10/07 06:56:20;;;;;;;6.50;4.03;;;23.90;63.90;;;;;;5050257;28;20532;-78
2023/10/07 06:58:53;;;;;;;4.43;3.73;;;23.90;63.90;;;;;;5039320;28;20513;-79
2023/10/07 07:01:35;;;;;;;3.93;3.37;;;23.90;64.00;;;;;;5051783;28;20470;-80
2023/10/07 07:04:10;;;;;;;4.10;3.70;;;23.90;63.90;;;;;;5069060;28;20441;-80
2023/10/07 07:06:43;;;;;;;3.70;3.30;;;23.90;64.10;;;;;;5048706;28;20528;-79
2023/10/07 07:11:53;;;;;;;5.27;3.87;;;23.90;63.90;;;;;;5041514;28;20574;-79
2023/10/07 07:14:28;;;;;;;6.10;3.80;;;23.90;64.10;;;;;;5059667;28;20513;-79
2023/10/07 07:16:56;;;;;;;4.27;3.73;;;23.90;63.90;;;;;;5049176;28;20793;-80
2023/10/07 07:19:24;;;;;;;4.67;3.17;;;23.90;63.80;;;;;;5056268;28;20453;-79
2023/10/07 07:21:57;;;;;;;4.07;3.53;;;23.90;63.80;;;;;;5058783;28;20474;-80
2023/10/07 07:24:29;;;;;;;5.67;3.50;;;23.90;63.90;;;;;;5057603;28;20597;-80
2023/10/07 07:26:56;;;;;;;4.53;3.60;;;24.00;63.90;;;;;;5043062;28;20450;-80
2023/10/07 07:29:25;;;;;;;5.27;3.23;;;24.00;63.90;;;;;;5041996;28;20447;-80
2023/10/07 07:31:54;;;;;;;4.63;3.63;;;24.00;64.10;;;;;;5049881;28;20470;-79
2023/10/07 07:34:26;;;;;;;8.10;3.70;;;24.00;64.00;;;;;;5057919;28;20539;-79
2023/10/07 07:37:02;;;;;;;7.30;3.40;;;24.00;64.00;;;;;;5060271;28;20547;-79
2023/10/07 07:39:32;;;;;;;5.27;3.70;;;24.00;63.90;;;;;;5057376;28;20413;-78
2023/10/07 07:42:15;;;;;;;4.03;3.27;;;24.00;63.90;;;;;;5061788;28;20478;-80
2023/10/07 07:44:56;;;;;;;8.60;3.90;;;24.00;63.90;;;;;;5047661;28;20415;-80
2023/10/07 07:47:30;;;;;;;7.23;3.83;;;24.00;63.80;;;;;;5061103;28;20516;-79
2023/10/07 07:50:06;;;;;;;7.87;3.70;;;24.00;63.90;;;;;;5058381;28;20532;-80
2023/10/07 07:52:36;;;;;;;8.23;3.60;;;24.00;63.80;;;;;;5058824;28;20442;-77
2023/10/07 07:55:05;;;;;;;4.70;3.40;;;24.00;63.80;;;;;;5060204;28;20439;-79
2023/10/07 07:57:34;;;;;;;6.10;3.67;;;24.00;63.90;;;;;;5058904;28;20521;-79
2023/10/07 08:00:09;;;;;;;4.77;3.30;;;24.00;63.90;;;;;;5058911;28;20421;-79
2023/10/07 08:02:37;;;;;;;7.40;3.87;;;24.00;64.10;;;;;;5061723;28;20478;-79
2023/10/07 08:05:07;;;;;;;6.23;3.60;;;24.00;64.10;;;;;;5061416;28;20457;-79
2023/10/07 08:07:41;;;;;;;4.87;3.20;;;24.00;64.00;;;;;;5061858;28;20464;-80
2023/10/07 08:10:10;;;;;;;4.40;3.60;;;24.00;64.20;;;;;;5061600;28;20454;-81
2023/10/07 08:12:39;;;;;;;3.60;3.30;;;24.00;64.20;;;;;;5060322;28;20450;-79
2023/10/07 08:15:21;;;;;;;6.17;4.20;;;24.00;64.20;;;;;;5060495;28;20447;-79
2023/10/07 08:17:52;;;;;;;6.70;4.00;;;24.00;64.10;;;;;;5058349;28;20545;-79
2023/10/07 08:20:34;;;;;;;3.93;3.20;;;24.00;64.30;;;;;;5059728;28;20439;-78
2023/10/07 08:23:16;;;;;;;4.17;3.77;;;24.00;64.20;;;;;;5043999;28;20463;-78
2023/10/07 08:25:46;;;;;;;6.23;3.80;;;24.00;64.10;;;;;;5050938;28;20477;-78
2023/10/07 08:28:19;;;;;;;6.20;4.13;;;24.00;64.10;;;;;;5044459;28;20444;-78
2023/10/07 08:30:47;;;;;;;5.27;3.80;;;24.00;64.10;;;;;;5045750;28;20435;-78
2023/10/07 08:33:15;;;;;;;4.80;3.57;;;24.10;64.30;;;;;;5061752;28;20445;-79
2023/10/07 08:35:47;;;;;;;6.13;3.63;;;24.10;64.30;;;;;;5053171;28;20442;-80
2023/10/07 08:38:22;;;;;;;5.67;3.80;;;24.10;64.30;;;;;;5055983;28;20944;-78
2023/10/07 08:41:04;;;;;;;10.33;4.10;;;24.10;64.40;;;;;;5058595;28;20408;-78
2023/10/07 08:43:43;;;;;;;4.33;3.70;;;24.10;64.40;;;;;;5048841;28;20492;-78
2023/10/07 08:46:16;;;;;;;5.17;3.83;;;24.10;64.30;;;;;;5045598;28;20463;-76
2023/10/07 08:48:49;;;;;;;5.57;3.77;;;24.10;64.40;;;;;;5039355;28;20421;-77
2023/10/07 08:51:21;;;;;;;5.43;3.93;;;24.10;64.40;;;;;;5054626;28;20425;-77
2023/10/07 08:53:57;;;;;;;7.80;4.07;;;24.10;64.30;;;;;;5046351;28;20439;-76
2023/10/07 08:56:27;;;;;;;4.70;3.60;;;24.10;64.40;;;;;;5034966;28;20481;-76
2023/10/07 08:58:56;;;;;;;5.07;3.47;;;24.10;64.30;;;;;;5040200;28;20420;-77
2023/10/07 09:01:24;;;;;;;4.70;3.90;;;24.10;64.30;;;;;;5046506;28;20478;-77
2023/10/07 09:03:56;;;;;;;5.77;3.33;;;24.10;64.40;;;;;;5035972;28;20518;-77
2023/10/07 09:06:32;;;;;;;8.17;3.73;;;24.10;64.40;;;;;;5044138;28;20466;-78
2023/10/07 09:09:06;;;;;;;3.40;3.10;;;24.10;64.40;;;;;;5054911;28;20427;-77
2023/10/07 09:11:40;;;;;;;4.67;3.87;;;24.20;64.50;;;;;;5046468;28;20481;-77
2023/10/07 09:14:10;;;;;;;5.00;3.60;;;24.20;64.60;;;;;;5040677;28;20538;-77
2023/10/07 09:16:42;;;;;;;4.23;3.80;;;24.20;64.30;;;;;;5046632;28;20533;-77
2023/10/07 09:19:13;;;;;;;4.00;3.60;;;24.30;64.40;;;;;;5044158;28;20481;-78
2023/10/07 09:21:45;;;;;;;5.73;4.13;;;24.30;64.40;;;;;;5044693;28;20451;-78
2023/10/07 09:24:24;;;;;;;7.43;3.70;;;24.30;64.20;;;;;;5043755;28;20498;-78
2023/10/07 09:26:56;;;;;;;6.60;3.20;;;24.40;64.10;;;;;;5047446;28;20967;-79
2023/10/07 09:29:27;;;;;;;4.87;3.83;;;24.40;64.10;;;;;;5037196;28;20468;-78
2023/10/07 09:32:04;;;;;;;10.50;4.20;;;24.50;64.00;;;;;;5048438;28;20530;-78
2023/10/07 09:34:41;;;;;;;6.43;3.77;;;24.50;64.00;;;;;;5038320;28;20454;-78
2023/10/07 09:37:12;;;;;;;5.20;3.70;;;24.60;63.90;;;;;;5035233;28;20466;-77
2023/10/07 09:39:53;;;;;;;5.07;4.03;;;24.60;64.00;;;;;;5047790;28;20451;-78
2023/10/07 09:42:26;;;;;;;4.03;3.60;;;24.60;63.90;;;;;;5056851;28;20445;-78
2023/10/07 09:45:00;;;;;;;4.17;3.50;;;24.60;64.00;;;;;;5058221;28;20420;-79
2023/10/07 09:47:29;;;;;;;4.93;3.97;;;24.60;64.20;;;;;;5057194;28;20437;-79
2023/10/07 09:50:10;;;;;;;6.93;3.70;;;24.60;64.30;;;;;;5057793;28;20446;-81
2023/10/07 09:52:43;;;;;;;6.50;3.50;;;24.60;64.10;;;;;;5058416;28;20446;-81
2023/10/07 09:55:38;;;;;;;5.90;3.40;;;24.60;64.40;;;;;;5054995;28;20447;-80
2023/10/07 09:58:18;;;;;;;6.27;3.47;;;24.60;64.30;;;;;;5056529;28;20438;-79
2023/10/07 10:01:02;;;;;;;5.70;3.50;;;24.60;64.30;;;;;;5055024;28;20501;-78
2023/10/07 10:03:51;;;;;;;8.83;4.17;;;24.50;64.20;;;;;;5052723;28;20441;-79
2023/10/07 10:06:28;;;;;;;5.70;3.63;;;24.60;64.40;;;;;;5050850;28;20471;-78
2023/10/07 10:08:57;;;;;;;6.17;3.80;;;24.60;64.40;;;;;;5044566;28;20454;-78
2023/10/07 10:11:44;;;;;;;4.13;3.20;;;24.60;64.30;;;;;;5050318;28;20473;-78
2023/10/07 10:14:19;;;;;;;9.57;3.30;;;24.60;64.40;;;;;;5049772;28;20447;-79
2023/10/07 10:16:52;;;;;;;6.67;3.50;;;24.60;64.60;;;;;;5049759;28;20473;-79
2023/10/07 10:19:29;;;;;;;3.97;3.43;;;24.60;64.50;;;;;;5047641;28;20450;-78
2023/10/07 10:22:07;;;;;;;5.70;3.47;;;24.60;64.40;;;;;;5047673;28;20506;-79
2023/10/07 10:24:38;;;;;;;3.90;3.13;;;24.70;64.40;;;;;;5051101;28;20435;-77
2023/10/07 10:27:09;;;;;;;6.27;3.77;;;24.70;64.50;;;;;;5049578;28;20504;-79
2023/10/07 10:29:52;;;;;;;5.47;3.23;;;24.70;64.40;;;;;;5050964;28;20494;-79
2023/10/07 10:32:28;;;;;;;8.53;3.30;;;24.70;64.20;;;;;;5048213;28;20612;-80
2023/10/07 10:35:00;;;;;;;5.57;3.50;;;24.80;64.50;;;;;;5047994;28;20456;-78
2023/10/07 10:37:30;;;;;;;3.77;2.93;;;24.70;64.50;;;;;;5047353;28;20488;-79
2023/10/07 10:40:05;;;;;;;4.00;3.60;;;24.70;64.50;;;;;;5045557;28;20457;-79
2023/10/07 10:42:41;;;;;;;3.63;3.03;;;24.80;64.70;;;;;;5048098;28;20414;-79
2023/10/07 10:45:18;;;;;;;3.63;3.30;;;24.70;64.50;;;;;;5052520;28;20450;-78
2023/10/07 10:47:50;;;;;;;5.33;3.30;;;24.80;64.70;;;;;;5043944;28;20456;-78
2023/10/07 10:50:20;;;;;;;11.57;3.43;;;24.80;64.80;;;;;;5043026;28;20429;-78
2023/10/07 10:52:49;;;;;;;4.23;3.40;;;24.80;64.90;;;;;;5050332;28;20417;-80
2023/10/07 10:55:18;;;;;;;5.73;3.03;;;24.70;64.90;;;;;;5049268;28;20450;-79
2023/10/07 10:57:47;;;;;;;5.07;3.20;;;24.70;64.90;;;;;;5053747;28;20463;-81
2023/10/07 11:00:21;;;;;;;5.70;3.30;;;24.80;65.10;;;;;;5051728;28;20486;-79
2023/10/07 11:02:55;;;;;;;4.17;2.90;;;24.70;65.10;;;;;;5049062;28;20470;-79
2023/10/07 11:05:30;;;;;;;6.53;3.53;;;24.70;65.00;;;;;;5057949;28;20412;-79
2023/10/07 11:07:59;;;;;;;4.77;3.40;;;24.80;64.80;;;;;;5060896;28;20446;-79
2023/10/07 11:10:31;;;;;;;4.23;3.27;;;24.80;65.20;;;;;;5061281;28;20454;-80
2023/10/07 11:13:08;;;;;;;4.37;3.13;;;24.80;65.10;;;;;;5061927;28;20476;-78
2023/10/07 11:15:40;;;;;;;8.20;3.03;;;24.80;65.30;;;;;;5060860;28;20442;-77
2023/10/07 11:18:12;;;;;;;6.03;3.10;;;24.80;65.20;;;;;;5059071;28;20453;-80
2023/10/07 11:20:41;;;;;;;4.77;3.20;;;24.70;65.30;;;;;;5054087;28;20461;-80
2023/10/07 11:23:10;;;;;;;4.27;3.40;;;24.70;65.10;;;;;;5056629;28;20444;-80
2023/10/07 11:25:42;;;;;;;9.50;3.53;;;24.70;65.70;;;;;;5055810;28;20447;-80
2023/10/07 11:28:20;;;;;;;6.80;2.90;;;24.80;65.70;;;;;;5055966;28;20425;-78
2023/10/07 11:30:51;;;;;;;7.43;3.30;;;24.70;65.50;;;;;;5058051;28;20426;-79
2023/10/07 11:33:20;;;;;;;5.67;3.30;;;24.70;65.60;;;;;;5051864;28;21007;-79
2023/10/07 11:35:58;;;;;;;7.23;3.50;;;24.80;65.70;;;;;;5055694;28;20549;-77
2023/10/07 11:38:29;;;;;;;8.53;3.93;;;24.70;65.60;;;;;;5054089;28;20477;-81
2023/10/07 11:41:06;;;;;;;4.13;3.40;;;24.80;65.70;;;;;;5047970;28;20503;-78
2023/10/07 11:43:43;;;;;;;7.70;3.03;;;24.80;65.60;;;;;;5054915;28;20888;-78
2023/10/07 11:46:13;;;;;;;9.70;3.60;;;24.80;65.60;;;;;;5056288;28;20473;-77
2023/10/07 11:48:42;;;;;;;4.80;3.70;;;24.80;65.60;;;;;;5055023;28;20469;-77
2023/10/07 11:51:11;;;;;;;6.93;3.50;;;24.80;65.60;;;;;;5055702;28;21071;-77
2023/10/07 11:53:43;;;;;;;5.23;3.60;;;24.80;65.60;;;;;;5057378;28;20522;-78
2023/10/07 11:56:11;;;;;;;6.43;3.43;;;24.90;65.50;;;;;;5057655;28;20498;-80
2023/10/07 11:58:41;;;;;;;6.50;3.50;;;24.90;65.60;;;;;;5056812;28;20526;-78
2023/10/07 12:01:12;;;;;;;9.63;3.67;;;24.90;65.60;;;;;;5056656;28;20460;-79
2023/10/07 12:03:42;;;;;;;5.03;3.63;;;24.90;65.40;;;;;;5054363;28;20455;-79
2023/10/07 12:06:11;;;;;;;5.73;3.37;;;25.00;65.70;;;;;;5048467;28;20525;-77
2023/10/07 12:08:40;;;;;;;7.40;3.50;;;25.00;65.70;;;;;;5037887;28;20418;-79
2023/10/07 12:11:08;;;;;;;10.27;3.80;;;25.00;65.80;;;;;;5040331;28;20439;-77
2023/10/07 12:13:36;;;;;;;4.83;3.17;;;25.00;65.40;;;;;;5048954;28;20501;-78
2023/10/07 12:16:06;;;;;;;3.90;3.10;;;25.00;65.30;;;;;;5036605;28;20509;-80
2023/10/07 12:18:37;;;;;;;9.43;3.80;;;25.00;65.40;;;;;;5036403;28;20447;-79
2023/10/07 12:21:11;;;;;;;7.57;3.23;;;25.00;65.50;;;;;;5045349;28;20468;-81
2023/10/07 12:23:41;;;;;;;7.13;4.00;;;25.00;65.50;;;;;;5051826;28;20466;-79
2023/10/07 12:26:13;;;;;;;6.67;3.67;;;25.00;65.70;;;;;;5045432;28;20494;-77
2023/10/07 12:28:44;;;;;;;13.20;4.50;;;24.90;65.80;;;;;;5052694;28;20421;-77
2023/10/07 12:31:13;;;;;;;15.53;4.17;;;25.20;70.80;;;;;;5053120;28;20546;-76
2023/10/07 12:33:42;;;;;;;12.93;4.23;;;25.40;71.70;;;;;;5034565;28;20422;-77
2023/10/07 12:36:12;;;;;;;21.03;3.83;;;25.50;72.20;;;;;;5035729;28;20487;-75
2023/10/07 12:38:41;;;;;;;10.27;4.20;;;25.60;72.20;;;;;;5042849;28;20505;-80
2023/10/07 12:41:09;;;;;;;14.50;4.33;;;25.60;72.70;;;;;;5047666;28;20478;-78
2023/10/07 12:43:38;;;;;;;12.40;3.87;;;25.70;72.70;;;;;;5041084;28;21027;-77
2023/10/07 12:46:09;;;;;;;12.50;5.40;;;25.80;72.30;;;;;;5052858;28;20448;-78
2023/10/07 12:48:40;;;;;;;10.57;4.07;;;25.80;72.70;;;;;;5052368;28;20421;-78
2023/10/07 12:51:11;;;;;;;9.43;4.13;;;25.90;72.60;;;;;;5053830;28;20446;-79
2023/10/07 12:53:40;;;;;;;10.20;3.47;;;25.90;72.50;;;;;;5052521;28;20931;-80
2023/10/07 12:56:17;;;;;;;13.23;4.50;;;26.00;72.50;;;;;;5052880;28;20512;-77
2023/10/07 12:58:46;;;;;;;7.27;4.00;;;26.00;72.30;;;;;;5055780;28;20404;-79
2023/10/07 13:01:15;;;;;;;12.23;3.93;;;26.00;72.40;;;;;;5053965;28;20430;-79
2023/10/07 13:03:43;;;;;;;13.17;4.10;;;26.00;72.10;;;;;;5052173;28;20417;-78
2023/10/07 13:06:14;;;;;;;11.83;4.10;;;26.00;72.30;;;;;;5050896;28;20473;-79
2023/10/07 13:08:43;;;;;;;15.27;4.30;;;26.00;72.00;;;;;;5047826;28;20420;-79
2023/10/07 13:11:13;;;;;;;16.63;4.40;;;26.00;72.40;;;;;;5053325;28;20441;-79
2023/10/07 13:13:45;;;;;;;11.17;4.00;;;26.00;72.60;;;;;;5063125;28;20427;-77
2023/10/07 13:16:13;;;;;;;12.00;4.30;;;26.10;72.10;;;;;;5060888;28;20433;-79
2023/10/07 13:18:41;;;;;;;13.20;3.70;;;26.10;72.10;;;;;;5044632;28;20431;-78